Time;durP1;ratioP1;P1;durP2;ratioP2;P2;SDS_P1;SDS_P2;PMS_P1;PMS_P2;Temp;Humidity;BMP_temperature;BMP_pressure;BME280_temperature;BME280_humidity;BME280_pressure;Samples;Min_cycle;Max_cycle;Signal;HPM_P1;HPM_P2
2023/03/22 00:03:40;;;;;;;7.37;4.07;;;11.00;99.90;;;;;;7275507;32;20136;-54
2023/03/22 00:07:42;;;;;;;8.40;4.68;;;11.00;99.90;;;;;;7282009;32;20105;-55
2023/03/22 00:11:45;;;;;;;8.23;4.45;;;11.10;99.90;;;;;;7276714;32;20135;-55
2023/03/22 00:15:47;;;;;;;7.95;4.57;;;11.00;99.90;;;;;;7272967;32;20199;-56
2023/03/22 00:19:49;;;;;;;9.10;4.87;;;11.10;99.90;;;;;;7275720;32;20108;-55
2023/03/22 00:23:51;;;;;;;7.97;4.62;;;11.20;99.90;;;;;;7281821;32;20215;-55
2023/03/22 00:27:53;;;;;;;7.40;4.30;;;11.20;99.90;;;;;;7272868;32;20143;-55
2023/03/22 00:31:55;;;;;;;7.45;4.78;;;11.20;99.90;;;;;;7279288;32;20626;-56
2023/03/22 00:35:59;;;;;;;8.52;4.47;;;11.20;99.90;;;;;;7277099;32;20746;-55
2023/03/22 00:40:02;;;;;;;7.00;4.72;;;11.10;99.90;;;;;;7273724;32;20111;-54
2023/03/22 00:44:04;;;;;;;10.15;4.75;;;11.10;99.90;;;;;;7275546;32;20217;-55
2023/03/22 00:48:08;;;;;;;8.52;4.75;;;11.00;99.90;;;;;;7275493;32;20903;-54
2023/03/22 00:52:10;;;;;;;8.55;4.72;;;10.90;99.90;;;;;;7274275;32;20572;-54
2023/03/22 00:56:14;;;;;;;9.40;4.93;;;10.80;99.90;;;;;;7270415;32;20096;-55
2023/03/22 01:00:17;;;;;;;8.80;5.57;;;10.60;99.90;;;;;;7273115;32;20481;-54
2023/03/22 01:04:24;;;;;;;7.57;5.05;;;10.60;99.90;;;;;;7271171;32;20166;-54
2023/03/22 01:08:31;;;;;;;10.10;4.95;;;10.50;99.90;;;;;;7272649;32;20108;-54
2023/03/22 01:12:33;;;;;;;;;;;10.30;99.90;;;;;;7274022;32;20124;-54
2023/03/22 01:16:36;;;;;;;9.52;5.37;;;10.10;99.90;;;;;;7280330;32;20428;-54
2023/03/22 01:20:37;;;;;;;9.38;5.37;;;9.90;99.90;;;;;;7281784;32;20130;-54
2023/03/22 01:24:40;;;;;;;9.48;5.53;;;10.10;99.90;;;;;;7276883;32;20214;-53
2023/03/22 01:28:41;;;;;;;8.65;5.97;;;10.20;99.90;;;;;;7275183;32;20196;-54
2023/03/22 01:32:43;;;;;;;8.93;6.22;;;10.20;99.90;;;;;;7277195;32;20127;-53
2023/03/22 01:36:45;;;;;;;10.43;6.12;;;10.30;99.90;;;;;;7277011;32;20203;-56
2023/03/22 01:40:46;;;;;;;8.57;6.05;;;10.20;99.90;;;;;;7278112;32;20231;-56
2023/03/22 01:45:13;;;;;;;10.98;6.35;;;10.10;99.90;;;;;;7277524;32;20677;-56
2023/03/22 01:49:20;;;;;;;9.35;6.07;;;9.80;99.90;;;;;;7283215;32;20630;-56
2023/03/22 01:53:24;;;;;;;10.30;6.68;;;9.70;99.90;;;;;;7277593;32;20116;-53
2023/03/22 01:57:26;;;;;;;12.95;6.53;;;9.40;99.90;;;;;;7276987;32;20167;-53
2023/03/22 02:01:28;;;;;;;11.32;6.50;;;9.20;99.90;;;;;;7279411;32;20527;-53
2023/03/22 02:05:30;;;;;;;9.85;6.68;;;9.10;99.90;;;;;;7276599;32;20141;-54
2023/03/22 02:09:32;;;;;;;14.45;7.30;;;9.00;99.90;;;;;;7280069;32;20559;-55
2023/03/22 02:14:02;;;;;;;11.68;6.87;;;9.00;99.90;;;;;;7278783;32;20555;-54
2023/03/22 02:18:26;;;;;;;14.10;8.30;;;8.90;99.90;;;;;;7274469;32;20435;-55
2023/03/22 02:23:02;;;;;;;10.68;7.47;;;8.80;99.90;;;;;;7275396;32;20502;-55
2023/03/22 02:27:05;;;;;;;10.77;8.20;;;8.70;99.90;;;;;;7278293;32;20113;-55
2023/03/22 02:31:06;;;;;;;11.93;7.57;;;8.70;99.90;;;;;;7278361;32;20547;-55
2023/03/22 02:35:30;;;;;;;15.05;7.60;;;8.70;99.90;;;;;;7280947;32;20108;-55
2023/03/22 02:39:42;;;;;;;13.73;8.88;;;8.80;99.90;;;;;;7282333;32;20116;-55
2023/03/22 02:44:12;;;;;;;10.90;7.87;;;8.80;99.90;;;;;;7282195;32;20514;-55
2023/03/22 02:48:31;;;;;;;10.38;7.97;;;8.80;99.90;;;;;;7280977;32;20199;-55
2023/03/22 02:52:45;;;;;;;14.30;8.23;;;8.80;99.90;;;;;;7285610;32;20120;-55
2023/03/22 02:56:55;;;;;;;11.63;8.35;;;8.70;99.90;;;;;;7278051;32;20159;-55
2023/03/22 03:01:01;;;;;;;11.95;8.93;;;8.70;99.90;;;;;;7285187;32;20597;-55
2023/03/22 03:05:04;;;;;;;11.55;8.85;;;8.80;99.90;;;;;;7276495;32;20230;-55
2023/03/22 03:09:07;;;;;;;14.57;8.50;;;8.90;99.90;;;;;;7283549;32;20214;-56
2023/03/22 03:13:14;;;;;;;12.95;8.43;;;8.70;99.90;;;;;;7267755;32;20371;-55
2023/03/22 03:17:44;;;;;;;11.12;8.88;;;8.70;99.90;;;;;;7280325;32;20214;-55
2023/03/22 03:22:17;;;;;;;13.98;9.23;;;8.60;99.90;;;;;;7280390;32;20281;-55
2023/03/22 03:26:38;;;;;;;12.13;8.98;;;8.60;99.90;;;;;;7284563;32;20146;-55
2023/03/22 03:31:00;;;;;;;14.25;9.15;;;8.60;99.90;;;;;;7274451;32;20128;-54
2023/03/22 03:35:21;;;;;;;12.80;9.43;;;8.50;99.90;;;;;;7277232;32;20138;-55
2023/03/22 03:39:26;;;;;;;13.77;10.18;;;8.50;99.90;;;;;;7280899;32;20134;-55
2023/03/22 03:43:28;;;;;;;16.45;9.07;;;8.50;99.90;;;;;;7285943;32;20545;-55
2023/03/22 03:47:30;;;;;;;14.25;9.90;;;8.50;99.90;;;;;;7275190;32;20240;-55
2023/03/22 03:51:32;;;;;;;14.38;9.57;;;8.50;99.90;;;;;;7280327;32;20586;-55
2023/03/22 03:55:35;;;;;;;14.80;9.77;;;8.50;99.90;;;;;;7272479;32;20637;-55
2023/03/22 03:59:36;;;;;;;14.68;9.52;;;8.60;99.90;;;;;;7275244;32;20181;-55
2023/03/22 04:03:38;;;;;;;11.85;9.23;;;8.60;99.90;;;;;;7273859;32;20183;-55
2023/03/22 04:07:40;;;;;;;15.20;9.00;;;8.60;99.90;;;;;;7274841;32;20211;-55
2023/03/22 04:11:42;;;;;;;11.48;8.50;;;8.60;99.90;;;;;;7273811;32;20175;-55
2023/03/22 04:15:44;;;;;;;14.60;9.43;;;8.60;99.90;;;;;;7275090;32;20282;-55
2023/03/22 04:19:45;;;;;;;12.52;9.50;;;8.60;99.90;;;;;;7282993;32;20202;-54
2023/03/22 04:23:47;;;;;;;11.80;8.75;;;8.70;99.90;;;;;;7281073;32;20103;-56
2023/03/22 04:27:50;;;;;;;11.63;8.07;;;8.60;99.90;;;;;;7274038;32;20199;-55
2023/03/22 04:31:52;;;;;;;14.63;9.13;;;8.60;99.90;;;;;;7272219;32;20525;-55
2023/03/22 04:35:55;;;;;;;13.70;8.85;;;8.60;99.90;;;;;;7276585;32;20154;-55
2023/03/22 04:39:58;;;;;;;13.90;7.82;;;8.60;99.90;;;;;;7276473;32;20501;-55
2023/03/22 04:44:03;;;;;;;12.43;8.50;;;8.60;99.90;;;;;;7280756;32;20171;-55
2023/03/22 04:48:06;;;;;;;18.37;8.32;;;8.60;99.90;;;;;;7271785;32;20207;-55
2023/03/22 04:52:08;;;;;;;11.98;7.45;;;8.60;99.90;;;;;;7278416;32;20128;-55
2023/03/22 04:56:12;;;;;;;13.15;7.57;;;8.80;99.90;;;;;;7276730;32;20811;-55
2023/03/22 05:00:14;;;;;;;10.90;6.60;;;8.80;99.90;;;;;;7281613;32;20128;-55
2023/03/22 05:04:17;;;;;;;10.57;6.95;;;8.90;99.90;;;;;;7274022;32;20195;-55
2023/03/22 05:08:21;;;;;;;12.35;6.90;;;9.10;99.90;;;;;;7285053;32;20183;-55
2023/03/22 05:12:22;;;;;;;12.68;6.82;;;9.10;99.90;;;;;;7284798;32;20100;-55
2023/03/22 05:16:24;;;;;;;10.63;6.72;;;9.20;99.90;;;;;;7285201;32;20089;-55
2023/03/22 05:20:26;;;;;;;9.23;6.00;;;9.20;99.90;;;;;;7282922;32;20232;-55
2023/03/22 05:24:29;;;;;;;10.13;6.50;;;9.30;99.90;;;;;;7289802;32;20286;-55
2023/03/22 05:28:30;;;;;;;14.40;7.12;;;9.40;99.90;;;;;;7290668;32;20174;-55
2023/03/22 05:32:32;;;;;;;10.68;6.25;;;9.50;99.90;;;;;;7287859;32;20600;-55
2023/03/22 05:36:35;;;;;;;10.50;5.97;;;9.50;99.90;;;;;;7284785;32;20130;-56
2023/03/22 05:40:37;;;;;;;14.25;6.25;;;9.60;99.90;;;;;;7289360;32;20100;-55
2023/03/22 05:44:39;;;;;;;9.52;5.85;;;9.70;99.90;;;;;;7290479;32;20469;-55
2023/03/22 05:48:40;;;;;;;10.88;5.80;;;9.90;99.90;;;;;;7287512;32;20118;-56
2023/03/22 05:52:43;;;;;;;11.85;5.50;;;9.90;99.90;;;;;;7292197;32;20601;-56
2023/03/22 05:56:46;;;;;;;11.07;5.90;;;9.80;99.90;;;;;;7287463;32;20161;-57
2023/03/22 06:00:50;;;;;;;11.30;7.20;;;9.90;99.90;;;;;;7290011;32;20127;-56
2023/03/22 06:04:52;;;;;;;12.10;6.43;;;10.00;99.90;;;;;;7289076;32;20561;-56
2023/03/22 06:08:53;;;;;;;11.15;6.93;;;9.90;99.90;;;;;;7280060;32;20133;-56
2023/03/22 06:13:07;;;;;;;10.50;6.20;;;10.00;99.90;;;;;;7286888;32;20124;-56
2023/03/22 06:17:10;;;;;;;11.55;6.60;;;10.10;99.90;;;;;;7275708;32;20124;-56
2023/03/22 06:21:12;;;;;;;9.77;6.50;;;10.10;99.90;;;;;;7291083;32;20198;-56
2023/03/22 06:25:14;;;;;;;10.65;6.35;;;10.10;99.90;;;;;;7284465;32;20200;-56
2023/03/22 06:29:16;;;;;;;12.30;6.25;;;10.10;99.90;;;;;;7281871;32;20279;-56
2023/03/22 06:33:17;;;;;;;9.57;5.62;;;10.20;99.90;;;;;;7288220;32;20123;-56
2023/03/22 06:37:20;;;;;;;12.20;6.62;;;10.20;99.90;;;;;;7282255;32;20223;-57
2023/03/22 06:41:22;;;;;;;8.65;6.32;;;10.20;99.90;;;;;;7274730;32;20124;-56
2023/03/22 06:45:23;;;;;;;11.15;5.93;;;10.20;99.90;;;;;;7290170;32;20605;-56
2023/03/22 06:49:26;;;;;;;12.75;6.07;;;10.30;99.90;;;;;;7288588;32;20182;-56
2023/03/22 06:53:28;;;;;;;12.50;6.90;;;10.50;99.90;;;;;;7290429;32;20536;-56
2023/03/22 06:57:30;;;;;;;9.07;6.05;;;10.60;99.90;;;;;;7284289;32;20161;-56
2023/03/22 07:01:32;;;;;;;11.57;6.37;;;10.60;99.90;;;;;;7284315;32;20167;-56
2023/03/22 07:05:33;;;;;;;11.88;5.78;;;10.70;99.90;;;;;;7284353;32;20147;-56
2023/03/22 07:09:35;;;;;;;11.40;5.78;;;10.70;99.90;;;;;;7294109;32;20112;-55
2023/03/22 07:13:37;;;;;;;13.40;5.70;;;10.80;99.90;;;;;;7286707;32;20730;-56
2023/03/22 07:17:39;;;;;;;11.75;4.93;;;10.80;99.90;;;;;;7284244;32;20300;-56
2023/03/22 07:21:40;;;;;;;11.77;5.50;;;10.90;99.90;;;;;;7287678;32;20178;-56
2023/03/22 07:25:43;;;;;;;9.10;4.93;;;11.10;99.90;;;;;;7284049;32;20955;-57
2023/03/22 07:29:45;;;;;;;9.20;4.18;;;11.20;99.90;;;;;;7279652;32;20120;-57
2023/03/22 07:33:47;;;;;;;10.50;3.53;;;11.40;99.90;;;;;;7283942;32;20188;-57
2023/03/22 07:37:49;;;;;;;8.48;2.90;;;11.60;99.90;;;;;;7284285;32;21229;-64
2023/03/22 07:41:51;;;;;;;8.85;2.70;;;11.80;99.90;;;;;;7287560;32;20122;-64
2023/03/22 07:45:53;;;;;;;7.15;2.62;;;12.30;99.90;;;;;;7283947;32;20128;-62
2023/03/22 07:49:54;;;;;;;6.90;2.35;;;12.50;99.90;;;;;;7282217;32;20209;-57
2023/03/22 07:53:56;;;;;;;11.88;2.28;;;12.50;99.90;;;;;;7284946;32;20195;-57
2023/03/22 07:57:58;;;;;;;5.60;2.10;;;12.40;99.90;;;;;;7287650;32;20492;-56
2023/03/22 08:01:59;;;;;;;5.87;2.08;;;12.10;99.90;;;;;;7286879;32;20207;-57
2023/03/22 08:06:06;;;;;;;8.00;2.22;;;12.00;99.90;;;;;;7287912;32;20123;-58
2023/03/22 08:10:08;;;;;;;7.43;2.37;;;11.90;99.90;;;;;;7284414;32;20490;-57
2023/03/22 08:14:10;;;;;;;6.87;2.30;;;12.00;99.90;;;;;;7288343;32;20544;-57
2023/03/22 08:18:12;;;;;;;6.05;1.35;;;12.10;99.90;;;;;;7282680;32;20178;-57
2023/03/22 08:22:14;;;;;;;10.45;2.50;;;12.10;99.90;;;;;;7291692;32;20237;-57
2023/03/22 08:26:16;;;;;;;7.80;1.50;;;12.00;99.90;;;;;;7276952;32;20348;-56
2023/03/22 08:30:20;;;;;;;5.57;1.37;;;12.00;99.90;;;;;;7282372;32;20096;-56
2023/03/22 08:34:22;;;;;;;6.87;1.40;;;12.00;99.90;;;;;;7289774;32;20210;-57
2023/03/22 08:38:24;;;;;;;5.05;1.33;;;12.10;99.90;;;;;;7289744;32;20104;-56
2023/03/22 08:42:26;;;;;;;5.12;1.00;;;12.00;99.90;;;;;;7289849;32;20282;-57
2023/03/22 08:46:27;;;;;;;6.93;1.62;;;12.00;99.90;;;;;;7283964;32;20142;-57
2023/03/22 08:50:29;;;;;;;7.97;1.12;;;12.00;99.90;;;;;;7283545;32;20112;-56
2023/03/22 08:54:32;;;;;;;7.72;1.42;;;11.90;99.90;;;;;;7286117;32;20097;-57
2023/03/22 08:58:37;;;;;;;4.22;0.88;;;12.10;99.90;;;;;;7292332;32;20314;-56
2023/03/22 09:02:38;;;;;;;7.35;1.23;;;12.10;99.90;;;;;;7287040;32;20321;-56
2023/03/22 09:06:44;;;;;;;3.17;0.65;;;12.40;99.90;;;;;;7285585;32;20587;-56
2023/03/22 09:10:50;;;;;;;3.97;1.15;;;12.60;99.90;;;;;;7284300;32;20101;-56
2023/03/22 09:14:51;;;;;;;6.55;1.33;;;13.20;99.90;;;;;;7281336;32;20093;-58
2023/03/22 09:18:55;;;;;;;7.32;1.12;;;13.60;99.90;;;;;;7286943;32;20580;-57
2023/03/22 09:22:56;;;;;;;3.42;0.90;;;13.90;99.90;;;;;;7282464;32;20199;-57
2023/03/22 09:26:58;;;;;;;4.05;1.20;;;14.10;99.90;;;;;;7287426;32;20104;-56
2023/03/22 09:31:01;;;;;;;8.48;0.80;;;14.60;99.90;;;;;;7282854;32;20161;-56
2023/03/22 09:35:03;;;;;;;5.25;0.80;;;15.00;99.90;;;;;;7286210;32;20241;-55
2023/03/22 09:39:06;;;;;;;7.53;1.17;;;14.50;99.90;;;;;;7292878;32;20117;-57
2023/03/22 09:43:11;;;;;;;6.55;1.20;;;14.10;99.90;;;;;;7283843;32;20513;-55
2023/03/22 09:47:18;;;;;;;3.80;1.12;;;13.70;99.90;;;;;;7292584;32;20130;-56
2023/03/22 09:51:26;;;;;;;3.35;0.85;;;13.30;99.90;;;;;;7285391;32;20126;-55
2023/03/22 09:55:46;;;;;;;2.65;0.90;;;13.10;99.90;;;;;;7284045;32;20237;-56
2023/03/22 10:00:13;;;;;;;5.93;0.95;;;13.00;99.90;;;;;;7289160;32;20131;-56
2023/03/22 10:04:40;;;;;;;5.20;1.33;;;12.90;99.90;;;;;;7279703;32;22334;-58
2023/03/22 10:08:58;;;;;;;4.95;0.88;;;13.30;99.90;;;;;;7277110;32;20593;-57
2023/03/22 10:13:14;;;;;;;4.45;0.90;;;13.90;99.90;;;;;;7278230;32;20118;-56
2023/03/22 10:17:22;;;;;;;9.73;1.40;;;13.90;99.90;;;;;;7288672;32;20104;-56
2023/03/22 10:21:25;;;;;;;3.58;0.88;;;13.80;99.90;;;;;;7269963;32;20435;-56
2023/03/22 10:25:35;;;;;;;5.05;1.12;;;14.00;99.90;;;;;;7290032;32;20177;-56
2023/03/22 10:29:39;;;;;;;8.85;1.10;;;14.20;99.90;;;;;;7282257;32;20704;-56
2023/03/22 10:33:50;;;;;;;6.35;1.00;;;14.20;99.90;;;;;;7278683;32;20096;-56
2023/03/22 10:37:55;;;;;;;5.28;1.10;;;14.30;99.90;;;;;;7280143;32;20264;-56
2023/03/22 10:42:00;;;;;;;7.32;0.95;;;14.20;99.90;;;;;;7290884;32;20227;-56
2023/03/22 10:46:03;;;;;;;5.22;1.20;;;14.00;99.90;;;;;;7288322;32;20491;-57
2023/03/22 10:50:12;;;;;;;6.07;1.02;;;13.80;99.90;;;;;;7288139;32;20131;-56
2023/03/22 10:54:17;;;;;;;3.03;0.90;;;13.60;99.90;;;;;;7290486;32;20173;-57
2023/03/22 10:58:20;;;;;;;4.55;1.20;;;13.50;99.90;;;;;;7285576;32;20197;-56
2023/03/22 11:02:29;;;;;;;7.22;1.33;;;13.30;99.90;;;;;;7282948;32;20195;-57
2023/03/22 11:06:37;;;;;;;5.75;0.90;;;13.30;99.90;;;;;;7287342;32;20147;-58
2023/03/22 11:10:39;;;;;;;4.72;1.08;;;13.20;99.90;;;;;;7280960;32;20115;-56
2023/03/22 11:14:44;;;;;;;6.20;0.90;;;13.40;99.90;;;;;;7280921;32;20126;-56
2023/03/22 11:18:46;;;;;;;4.97;0.90;;;13.20;99.90;;;;;;7278187;32;20104;-56
2023/03/22 11:22:49;;;;;;;4.03;1.10;;;13.30;99.90;;;;;;7277943;32;20385;-57
2023/03/22 11:27:09;;;;;;;5.32;1.10;;;13.40;99.90;;;;;;7275340;32;20100;-55
2023/03/22 11:31:17;;;;;;;5.37;0.80;;;13.10;99.90;;;;;;7276849;32;20529;-55
2023/03/22 11:35:26;;;;;;;;;;;13.30;99.90;;;;;;7279367;32;20127;-55
2023/03/22 11:39:29;;;;;;;4.47;0.90;;;13.20;99.90;;;;;;7284121;32;20107;-55
2023/03/22 11:43:42;;;;;;;2.92;1.10;;;13.10;99.90;;;;;;7277580;32;20119;-56
2023/03/22 11:47:44;;;;;;;6.28;0.95;;;13.10;99.90;;;;;;7279667;32;20122;-56
2023/03/22 11:51:46;;;;;;;3.22;1.00;;;13.10;99.90;;;;;;7287906;32;20187;-56
2023/03/22 11:55:51;;;;;;;6.50;1.05;;;13.10;99.90;;;;;;7282078;32;20210;-56
2023/03/22 12:00:20;;;;;;;2.92;0.68;;;13.20;99.90;;;;;;7277819;32;20100;-56
2023/03/22 12:04:27;;;;;;;4.40;1.00;;;13.30;99.90;;;;;;7281079;32;20386;-56
2023/03/22 12:08:45;;;;;;;2.87;0.80;;;13.10;99.90;;;;;;7279680;32;20582;-55
2023/03/22 12:12:58;;;;;;;4.47;1.20;;;13.20;99.90;;;;;;7276458;32;20195;-55
2023/03/22 12:17:12;;;;;;;5.60;1.17;;;13.30;99.90;;;;;;7273955;32;20104;-55
2023/03/22 12:21:15;;;;;;;6.50;1.65;;;13.10;99.90;;;;;;7276693;32;20290;-57
2023/03/22 12:25:22;;;;;;;3.47;0.82;;;13.20;99.90;;;;;;7279950;32;20297;-61
2023/03/22 12:29:25;;;;;;;4.15;0.62;;;13.20;99.90;;;;;;7277800;32;20186;-56
2023/03/22 12:33:36;;;;;;;4.10;0.98;;;13.30;99.90;;;;;;7284775;32;20341;-56
2023/03/22 12:37:41;;;;;;;2.35;1.10;;;13.30;99.90;;;;;;7280024;32;20726;-56
2023/03/22 12:41:48;;;;;;;4.30;0.90;;;13.20;99.90;;;;;;7276713;32;20166;-56
2023/03/22 12:45:56;;;;;;;3.28;0.62;;;13.00;99.90;;;;;;7276703;32;20104;-56
2023/03/22 12:50:11;;;;;;;4.53;0.80;;;12.90;99.90;;;;;;7289710;32;20128;-56
2023/03/22 12:54:17;;;;;;;2.53;0.90;;;12.90;99.90;;;;;;7276486;32;20177;-57
2023/03/22 12:58:24;;;;;;;6.20;1.58;;;12.70;99.90;;;;;;7280271;32;20130;-57
2023/03/22 13:02:33;;;;;;;3.10;0.93;;;12.80;99.90;;;;;;7276930;32;20104;-57
2023/03/22 13:06:44;;;;;;;4.75;0.80;;;12.70;99.90;;;;;;7279714;32;20532;-56
2023/03/22 13:11:20;;;;;;;5.53;1.23;;;12.70;99.90;;;;;;7271709;32;20540;-57
2023/03/22 13:15:33;;;;;;;5.95;1.10;;;12.70;99.90;;;;;;7272700;32;20311;-56
2023/03/22 13:19:53;;;;;;;2.80;0.73;;;12.70;99.90;;;;;;7284087;32;20498;-57
2023/03/22 13:23:56;;;;;;;3.53;0.90;;;12.70;99.90;;;;;;7279722;32;20199;-56
2023/03/22 13:28:18;;;;;;;6.65;1.05;;;12.80;99.90;;;;;;7279744;32;20220;-57
2023/03/22 13:32:28;;;;;;;5.10;1.20;;;12.80;99.90;;;;;;7278466;32;20116;-56
2023/03/22 13:36:30;;;;;;;3.97;1.33;;;12.90;99.90;;;;;;7281460;32;20103;-56
2023/03/22 13:40:38;;;;;;;3.50;1.23;;;12.90;99.90;;;;;;7280572;32;20636;-57
2023/03/22 13:44:44;;;;;;;4.20;1.10;;;12.90;99.90;;;;;;7275925;32;20092;-56
2023/03/22 13:48:46;;;;;;;6.70;1.15;;;13.00;99.90;;;;;;7280107;32;20135;-56
2023/03/22 13:53:01;;;;;;;2.05;0.77;;;13.00;99.90;;;;;;7285148;32;20771;-56
2023/03/22 13:57:03;;;;;;;6.12;1.02;;;13.00;99.90;;;;;;7280627;32;20163;-57
2023/03/22 14:01:13;;;;;;;3.72;0.80;;;12.90;99.90;;;;;;7273265;32;20285;-56
2023/03/22 14:05:21;;;;;;;2.58;0.90;;;13.00;99.90;;;;;;7289627;32;20649;-56
2023/03/22 14:09:38;;;;;;;4.07;0.80;;;12.80;99.90;;;;;;7278857;32;20109;-56
2023/03/22 14:13:47;;;;;;;3.83;1.20;;;12.90;99.90;;;;;;7282153;32;20277;-55
2023/03/22 14:17:52;;;;;;;4.70;1.27;;;12.90;99.90;;;;;;7274627;32;20116;-56
2023/03/22 14:21:57;;;;;;;3.62;1.02;;;12.90;99.90;;;;;;7284086;32;20199;-56
2023/03/22 14:26:06;;;;;;;4.90;0.90;;;13.00;99.90;;;;;;7283174;32;20305;-56
2023/03/22 14:30:19;;;;;;;4.97;1.12;;;13.00;99.90;;;;;;7284702;32;20268;-55
2023/03/22 14:34:20;;;;;;;4.45;1.17;;;12.90;99.90;;;;;;7292473;32;20115;-56
2023/03/22 14:38:26;;;;;;;3.60;1.02;;;12.90;99.90;;;;;;7276942;32;20096;-58
2023/03/22 14:42:29;;;;;;;2.90;1.10;;;13.00;99.90;;;;;;7280128;32;20198;-58
2023/03/22 14:46:37;;;;;;;4.82;1.20;;;13.20;99.90;;;;;;7277579;32;20571;-59
2023/03/22 14:50:44;;;;;;;4.03;1.27;;;13.30;99.90;;;;;;7282033;32;20198;-55
2023/03/22 14:54:53;;;;;;;7.55;1.35;;;13.20;99.90;;;;;;7279558;32;20754;-55
2023/03/22 14:58:58;;;;;;;4.40;1.30;;;13.20;99.90;;;;;;7275529;32;20122;-56
2023/03/22 15:03:03;;;;;;;4.15;1.30;;;13.10;99.90;;;;;;7283950;32;20577;-56
2023/03/22 15:07:04;;;;;;;7.68;1.33;;;13.00;99.90;;;;;;7286188;32;20115;-56
2023/03/22 15:11:09;;;;;;;4.47;0.98;;;13.10;99.90;;;;;;7285253;32;20092;-58
2023/03/22 15:15:11;;;;;;;4.05;0.93;;;13.10;99.90;;;;;;7284888;32;20195;-65
2023/03/22 15:19:16;;;;;;;3.67;1.10;;;13.20;99.90;;;;;;7280823;32;20179;-64
2023/03/22 15:23:16;;;;;;;4.72;1.30;;;13.40;99.90;;;;;;7288616;32;20273;-56
2023/03/22 15:27:19;;;;;;;4.30;1.00;;;13.40;99.90;;;;;;7286599;32;20538;-56
2023/03/22 15:31:22;;;;;;;6.00;1.20;;;13.30;99.90;;;;;;7281506;32;20211;-56
2023/03/22 15:35:25;;;;;;;5.03;1.00;;;13.30;99.90;;;;;;7285318;32;20144;-57
2023/03/22 15:39:35;;;;;;;4.45;1.20;;;13.30;99.90;;;;;;7279948;32;20398;-56
2023/03/22 15:43:39;;;;;;;3.62;0.90;;;13.30;99.90;;;;;;7271955;32;20132;-56
2023/03/22 15:47:46;;;;;;;3.05;0.90;;;13.30;99.90;;;;;;7279191;32;20181;-56
2023/03/22 15:51:47;;;;;;;5.53;0.98;;;13.30;99.90;;;;;;7288870;32;20412;-56
2023/03/22 15:55:48;;;;;;;3.20;0.80;;;13.20;99.90;;;;;;7282310;32;20187;-56
2023/03/22 16:00:02;;;;;;;4.18;0.80;;;13.20;99.90;;;;;;7282614;32;20100;-56
2023/03/22 16:04:16;;;;;;;4.37;0.82;;;13.30;99.90;;;;;;7292003;32;20138;-56
2023/03/22 16:08:18;;;;;;;7.80;1.08;;;13.30;99.90;;;;;;7278901;32;20308;-54
2023/03/22 16:12:19;;;;;;;4.70;0.85;;;13.30;99.90;;;;;;7289022;32;20088;-56
2023/03/22 16:16:23;;;;;;;5.22;1.23;;;13.40;99.90;;;;;;7285293;32;20227;-57
2023/03/22 16:20:32;;;;;;;3.17;0.90;;;13.50;99.90;;;;;;7286805;32;20137;-56
2023/03/22 16:24:33;;;;;;;5.03;1.23;;;13.50;99.90;;;;;;7286878;32;20108;-56
2023/03/22 16:28:34;;;;;;;4.90;1.90;;;13.50;99.90;;;;;;7283582;32;20119;-56
2023/03/22 16:32:34;;;;;;;2.78;1.00;;;13.50;99.90;;;;;;7286400;32;20167;-56
2023/03/22 16:36:35;;;;;;;3.15;0.80;;;13.40;99.90;;;;;;7286939;32;20550;-57
2023/03/22 16:40:36;;;;;;;4.97;0.85;;;13.50;99.90;;;;;;7283811;32;20145;-56
2023/03/22 16:44:37;;;;;;;5.45;1.00;;;13.40;99.90;;;;;;7284740;32;20187;-56
2023/03/22 16:48:38;;;;;;;4.07;1.12;;;13.30;99.90;;;;;;7290516;32;20214;-56
2023/03/22 16:52:39;;;;;;;6.78;1.80;;;13.30;99.90;;;;;;7289958;32;20100;-57
2023/03/22 16:56:41;;;;;;;7.70;1.10;;;13.30;99.90;;;;;;7288018;32;20197;-56
2023/03/22 17:00:42;;;;;;;5.35;1.20;;;13.20;99.90;;;;;;7287967;32;20143;-56
2023/03/22 17:04:43;;;;;;;3.90;1.33;;;13.20;99.90;;;;;;7289223;32;20100;-56
2023/03/22 17:08:44;;;;;;;3.35;1.10;;;13.20;99.90;;;;;;7282645;32;20161;-56
2023/03/22 17:12:46;;;;;;;2.00;0.95;;;13.20;99.90;;;;;;7268344;32;20165;-56
2023/03/22 17:16:47;;;;;;;6.53;1.70;;;13.10;99.90;;;;;;7272516;32;20199;-56
2023/03/22 17:20:48;;;;;;;3.92;1.00;;;13.10;99.90;;;;;;7278836;32;20139;-56
2023/03/22 17:24:49;;;;;;;5.60;1.30;;;13.10;99.90;;;;;;7271350;32;20135;-56
2023/03/22 17:28:50;;;;;;;2.78;1.30;;;13.00;99.90;;;;;;7283296;32;20120;-56
2023/03/22 17:32:50;;;;;;;4.25;1.20;;;13.00;99.90;;;;;;7281115;32;20127;-56
2023/03/22 17:36:51;;;;;;;5.10;1.20;;;13.00;99.90;;;;;;7279632;32;20431;-61
2023/03/22 17:40:52;;;;;;;5.07;0.95;;;13.20;99.90;;;;;;7290370;32;20112;-60
2023/03/22 17:44:53;;;;;;;3.97;0.73;;;13.30;99.90;;;;;;7282082;32;20211;-56
2023/03/22 17:48:54;;;;;;;4.22;1.00;;;13.30;99.90;;;;;;7278093;32;20104;-56
2023/03/22 17:52:55;;;;;;;4.05;0.95;;;13.30;99.90;;;;;;7283638;32;20601;-56
2023/03/22 17:56:56;;;;;;;5.82;1.42;;;13.30;99.90;;;;;;7289307;32;20143;-56
2023/03/22 18:00:57;;;;;;;4.40;0.88;;;13.20;99.90;;;;;;7284431;32;20982;-56
2023/03/22 18:04:58;;;;;;;3.72;0.95;;;13.20;99.90;;;;;;7279680;32;20118;-56
2023/03/22 18:08:59;;;;;;;2.05;0.77;;;13.20;99.90;;;;;;7290634;32;20108;-56
2023/03/22 18:12:59;;;;;;;4.57;1.20;;;13.10;99.90;;;;;;7268461;32;20169;-56
2023/03/22 18:17:00;;;;;;;5.87;1.40;;;13.10;99.90;;;;;;7285424;32;20168;-56
2023/03/22 18:21:07;;;;;;;3.72;1.10;;;13.10;99.90;;;;;;7285885;32;20670;-56
2023/03/22 18:25:09;;;;;;;6.30;1.40;;;13.10;99.90;;;;;;7284794;32;20126;-56
2023/03/22 18:29:10;;;;;;;3.90;1.30;;;13.00;99.90;;;;;;7284985;32;20170;-56
2023/03/22 18:33:11;;;;;;;3.10;1.20;;;13.10;99.90;;;;;;7292140;32;20100;-56
2023/03/22 18:37:13;;;;;;;3.62;1.00;;;13.00;99.90;;;;;;7287686;32;20655;-56
2023/03/22 18:41:14;;;;;;;2.83;1.00;;;13.00;99.90;;;;;;7284788;32;20768;-56
2023/03/22 18:45:16;;;;;;;3.17;1.00;;;13.00;99.90;;;;;;7281754;32;20115;-55
2023/03/22 18:49:17;;;;;;;4.85;1.45;;;13.00;99.90;;;;;;7285831;32;20739;-57
2023/03/22 18:53:18;;;;;;;4.07;1.15;;;13.00;99.90;;;;;;7286159;32;20301;-56
2023/03/22 18:57:19;;;;;;;3.97;1.17;;;13.10;99.90;;;;;;7287587;32;20221;-56
2023/03/22 19:01:20;;;;;;;5.57;1.35;;;13.10;99.90;;;;;;7280790;32;20122;-57
2023/03/22 19:05:20;;;;;;;6.20;1.48;;;13.10;99.90;;;;;;7287128;32;20103;-56
2023/03/22 19:09:22;;;;;;;6.10;1.37;;;13.00;99.90;;;;;;7281599;32;20551;-56
2023/03/22 19:13:23;;;;;;;4.65;1.42;;;13.20;99.90;;;;;;7284588;32;20119;-57
2023/03/22 19:17:23;;;;;;;6.72;1.70;;;13.00;99.90;;;;;;7275029;32;20092;-57
2023/03/22 19:21:24;;;;;;;6.28;1.85;;;13.00;99.90;;;;;;7282559;32;20194;-58
2023/03/22 19:25:25;;;;;;;3.78;1.73;;;13.00;99.90;;;;;;7275259;32;20104;-57
2023/03/22 19:29:27;;;;;;;5.18;1.58;;;13.00;99.90;;;;;;7275660;32;20768;-57
2023/03/22 19:33:28;;;;;;;6.35;1.80;;;13.00;99.90;;;;;;7276934;32;20290;-57
2023/03/22 19:37:28;;;;;;;4.45;1.30;;;13.00;99.90;;;;;;7281362;32;20184;-57
2023/03/22 19:41:29;;;;;;;4.25;1.55;;;13.00;99.90;;;;;;7270898;32;20602;-57
2023/03/22 19:45:30;;;;;;;4.75;1.48;;;13.00;99.90;;;;;;7264734;32;20774;-57
2023/03/22 19:49:32;;;;;;;5.35;1.90;;;13.00;99.90;;;;;;7281854;32;20163;-57
2023/03/22 19:53:35;;;;;;;4.72;1.62;;;13.00;99.90;;;;;;7284559;32;20103;-57
2023/03/22 19:57:35;;;;;;;5.68;1.83;;;13.10;99.90;;;;;;7280502;32;20154;-57
2023/03/22 20:01:36;;;;;;;5.90;1.70;;;13.00;99.90;;;;;;7284560;32;20381;-56
2023/03/22 20:05:37;;;;;;;6.37;1.95;;;12.90;99.90;;;;;;7277135;32;20359;-55
2023/03/22 20:09:41;;;;;;;4.55;1.80;;;12.90;99.90;;;;;;7287883;32;20167;-56
2023/03/22 20:13:42;;;;;;;5.72;1.60;;;12.90;99.90;;;;;;7279752;32;20179;-55
2023/03/22 20:17:43;;;;;;;4.20;1.80;;;12.80;99.90;;;;;;7284237;32;20203;-56
2023/03/22 20:21:43;;;;;;;7.87;1.98;;;12.80;99.90;;;;;;7287675;32;20096;-56
2023/03/22 20:25:53;;;;;;;8.70;2.08;;;12.90;99.90;;;;;;7286232;32;20207;-55
2023/03/22 20:29:54;;;;;;;4.37;1.83;;;12.90;99.90;;;;;;7287656;32;20104;-56
2023/03/22 20:33:55;;;;;;;9.35;2.08;;;12.90;99.90;;;;;;7281768;32;20206;-56
2023/03/22 20:37:55;;;;;;;10.38;3.03;;;12.80;99.90;;;;;;7282818;32;20101;-57
2023/03/22 20:41:56;;;;;;;5.37;1.92;;;12.80;99.90;;;;;;7284199;32;20210;-56
2023/03/22 20:45:57;;;;;;;5.20;1.98;;;12.80;99.90;;;;;;7273300;32;20123;-56
2023/03/22 20:49:57;;;;;;;4.90;2.10;;;12.70;99.90;;;;;;7283738;32;20305;-55
2023/03/22 20:53:58;;;;;;;5.12;2.10;;;12.80;99.90;;;;;;7287392;32;20092;-56
2023/03/22 20:57:59;;;;;;;5.87;2.30;;;12.70;99.90;;;;;;7280035;32;20554;-56
2023/03/22 21:02:00;;;;;;;3.78;1.80;;;12.70;99.90;;;;;;7285092;32;20602;-55
2023/03/22 21:06:09;;;;;;;4.80;1.98;;;12.50;99.90;;;;;;7282974;32;20135;-57
2023/03/22 21:10:11;;;;;;;7.90;2.00;;;12.40;99.90;;;;;;7281327;32;20524;-56
2023/03/22 21:14:12;;;;;;;5.93;2.40;;;12.30;99.90;;;;;;7286260;32;20112;-57